createdAt,value
2019-03-05T00:00:47.304Z,3.87
2019-03-05T00:03:17.861Z,3.53
2019-03-05T00:05:48.783Z,4.83
2019-03-05T00:08:19.327Z,4.67
2019-03-05T00:10:49.860Z,3.57
2019-03-05T00:13:20.428Z,4.13
2019-03-05T00:15:51.715Z,4.00
2019-03-05T00:18:22.269Z,3.57
2019-03-05T00:20:53.008Z,3.97
2019-03-05T00:23:45.219Z,4.53
2019-03-05T00:26:16.164Z,3.80
2019-03-05T00:29:39.585Z,3.80
2019-03-05T00:32:10.074Z,4.33
2019-03-05T00:35:17.411Z,4.00
2019-03-05T00:37:57.481Z,4.50
2019-03-05T00:40:35.967Z,4.73
2019-03-05T00:43:54.594Z,4.20
2019-03-05T00:46:51.875Z,4.80
2019-03-05T00:49:58.469Z,4.70
2019-03-05T00:53:10.827Z,4.63
2019-03-05T00:56:16.333Z,5.10
2019-03-05T00:59:04.685Z,4.37
2019-03-05T01:02:14.957Z,4.10
2019-03-05T01:05:35.343Z,4.47
2019-03-05T01:08:05.956Z,4.03
2019-03-05T01:10:36.622Z,4.90
2019-03-05T01:13:07.098Z,4.50
2019-03-05T01:15:37.893Z,5.03
2019-03-05T01:18:08.529Z,4.80
2019-03-05T01:20:38.999Z,4.90
2019-03-05T01:23:09.592Z,5.23
2019-03-05T01:25:40.115Z,4.73
2019-03-05T01:28:11.026Z,4.53
2019-03-05T01:31:02.057Z,5.20
2019-03-05T01:33:38.448Z,5.60
2019-03-05T01:36:15.916Z,4.43
2019-03-05T01:39:01.678Z,5.03
2019-03-05T01:41:33.809Z,4.70
2019-03-05T01:44:04.480Z,4.70
2019-03-05T01:46:34.929Z,4.73
2019-03-05T01:49:06.486Z,4.83
2019-03-05T01:51:36.962Z,4.77
2019-03-05T01:54:07.501Z,4.53
2019-03-05T01:56:37.967Z,4.53
2019-03-05T01:59:08.428Z,4.70
2019-03-05T02:01:38.932Z,4.23
2019-03-05T02:04:09.460Z,4.53
2019-03-05T02:06:39.860Z,4.03
2019-03-05T02:09:11.162Z,4.10
2019-03-05T02:11:42.361Z,4.80
2019-03-05T02:14:14.066Z,4.67
2019-03-05T02:16:45.925Z,5.10
2019-03-05T02:19:39.740Z,4.50
2019-03-05T02:22:31.608Z,4.20
2019-03-05T02:25:35.304Z,4.60
2019-03-05T02:28:58.551Z,4.80
2019-03-05T02:32:12.739Z,4.17
2019-03-05T02:35:14.701Z,3.87
2019-03-05T02:38:13.774Z,5.37
2019-03-05T02:41:15.909Z,4.90
2019-03-05T02:44:20.044Z,5.70
2019-03-05T02:47:46.542Z,7.00
2019-03-05T02:50:57.420Z,7.03
2019-03-05T02:53:55.248Z,6.87
2019-03-05T02:56:43.003Z,7.00
2019-03-05T02:59:11.815Z,7.27
2019-03-05T03:02:07.124Z,8.90
2019-03-05T03:04:41.192Z,8.53
2019-03-05T03:07:11.752Z,8.53
2019-03-05T03:10:14.295Z,6.87
2019-03-05T03:12:45.104Z,9.30
2019-03-05T03:15:16.821Z,7.40
2019-03-05T03:17:48.113Z,6.40
2019-03-05T03:20:20.520Z,9.90
2019-03-05T03:22:51.150Z,9.13
2019-03-05T03:25:25.231Z,9.20
2019-03-05T03:27:55.715Z,9.97
2019-03-05T03:30:28.056Z,9.27
2019-03-05T03:32:58.546Z,8.50
2019-03-05T03:35:30.117Z,9.83
2019-03-05T03:38:00.694Z,8.57
2019-03-05T03:40:31.223Z,8.73
2019-03-05T03:43:01.977Z,8.70
2019-03-05T03:45:32.475Z,8.50
2019-03-05T03:48:02.967Z,8.90
2019-03-05T03:50:33.424Z,8.40
2019-03-05T03:53:03.876Z,8.43
2019-03-05T03:55:34.634Z,8.40
2019-03-05T03:58:05.239Z,7.67
2019-03-05T04:00:35.803Z,7.67
2019-03-05T04:03:06.247Z,8.10
2019-03-05T04:05:36.823Z,7.60
2019-03-05T04:08:10.296Z,7.70
2019-03-05T04:10:39.565Z,6.60
2019-03-05T04:13:09.970Z,7.23
2019-03-05T04:15:40.531Z,7.23
2019-03-05T04:18:11.004Z,8.17
2019-03-05T04:20:59.683Z,5.73
2019-03-05T04:23:30.213Z,7.27
2019-03-05T04:26:00.768Z,7.73
2019-03-05T04:28:31.251Z,7.00
2019-03-05T04:31:01.760Z,6.50
2019-03-05T04:33:32.222Z,7.30
2019-03-05T04:36:02.967Z,7.07
2019-03-05T04:38:33.540Z,7.20
2019-03-05T04:41:04.098Z,7.00
2019-03-05T04:43:34.630Z,7.10
2019-03-05T04:46:24.098Z,6.93
2019-03-05T04:49:28.916Z,8.10
2019-03-05T04:52:08.902Z,8.47
2019-03-05T04:54:39.456Z,8.23
2019-03-05T04:57:09.892Z,8.33
2019-03-05T04:59:40.431Z,9.10
2019-03-05T05:02:10.921Z,6.50
2019-03-05T05:04:41.394Z,7.80
2019-03-05T05:07:11.922Z,7.00
2019-03-05T05:09:42.452Z,7.47
2019-03-05T05:12:12.897Z,6.30
2019-03-05T05:14:43.396Z,6.30
2019-03-05T05:17:13.967Z,6.10
2019-03-05T05:19:44.486Z,3.67
2019-03-05T05:22:14.938Z,6.73
2019-03-05T05:24:45.718Z,5.80
2019-03-05T05:27:16.328Z,3.80
2019-03-05T05:29:46.833Z,6.83
2019-03-05T05:32:17.410Z,6.63
2019-03-05T05:34:47.862Z,6.53
2019-03-05T05:37:18.366Z,6.63
2019-03-05T05:40:37.787Z,6.03
2019-03-05T05:43:11.201Z,6.13
2019-03-05T05:45:44.314Z,5.87
2019-03-05T05:48:14.718Z,4.73
2019-03-05T05:50:45.195Z,5.53
2019-03-05T05:53:15.731Z,5.00
2019-03-05T05:55:46.320Z,5.07
2019-03-05T05:58:16.933Z,4.50
2019-03-05T06:00:52.888Z,4.70
2019-03-05T06:03:23.445Z,6.00
2019-03-05T06:05:53.962Z,5.40
2019-03-05T06:08:24.526Z,5.77
2019-03-05T06:10:55.045Z,5.50
2019-03-05T06:13:25.708Z,5.27
2019-03-05T06:15:56.200Z,4.30
2019-03-05T06:18:26.844Z,5.27
2019-03-05T06:20:57.445Z,5.87
2019-03-05T06:23:28.015Z,5.30
2019-03-05T06:25:58.541Z,4.30
2019-03-05T06:28:29.054Z,5.03
2019-03-05T06:30:59.534Z,4.07
2019-03-05T06:33:30.120Z,4.70
2019-03-05T06:36:00.834Z,4.70
2019-03-05T06:38:31.422Z,5.87
2019-03-05T06:41:01.924Z,4.70
2019-03-05T06:43:32.357Z,4.27
2019-03-05T06:46:02.960Z,3.83
2019-03-05T06:48:33.428Z,4.57
2019-03-05T06:51:03.940Z,4.70
2019-03-05T06:53:34.445Z,4.93
2019-03-05T06:56:04.946Z,4.73
2019-03-05T06:58:35.444Z,4.10
2019-03-05T07:01:05.936Z,4.77
2019-03-05T07:03:36.463Z,5.63
2019-03-05T07:06:42.483Z,6.23
2019-03-05T07:09:40.721Z,6.23
2019-03-05T07:12:35.559Z,6.67
2019-03-05T07:15:33.326Z,5.90
2019-03-05T07:18:12.089Z,5.80
2019-03-05T07:21:04.899Z,6.13
2019-03-05T07:24:05.844Z,5.43
2019-03-05T07:26:36.308Z,5.20
2019-03-05T07:29:06.949Z,5.73
2019-03-05T07:31:37.393Z,6.00
2019-03-05T07:34:11.975Z,5.70
2019-03-05T07:36:45.123Z,6.67
2019-03-05T07:39:20.086Z,5.77
2019-03-05T07:41:50.697Z,6.17
2019-03-05T07:44:21.232Z,5.80
2019-03-05T07:46:51.736Z,3.90
2019-03-05T07:49:22.192Z,5.43
2019-03-05T07:51:52.782Z,6.00
2019-03-05T07:54:23.242Z,3.70
2019-03-05T07:56:53.769Z,4.67
2019-03-05T07:59:25.354Z,4.73
2019-03-05T08:01:55.930Z,4.93
2019-03-05T08:04:26.632Z,4.53
2019-03-05T08:06:57.076Z,4.60
2019-03-05T08:09:38.531Z,3.60
2019-03-05T08:12:50.273Z,4.20
2019-03-05T08:16:01.894Z,3.97
2019-03-05T08:18:25.386Z,3.47
2019-03-05T08:20:56.033Z,4.07
2019-03-05T08:23:26.716Z,4.10
2019-03-05T08:25:57.256Z,3.70
2019-03-05T08:28:28.016Z,3.73
2019-03-05T08:30:58.583Z,3.90
2019-03-05T08:33:29.208Z,4.00
2019-03-05T08:35:59.790Z,3.57
2019-03-05T08:38:31.451Z,3.77
2019-03-05T08:41:01.909Z,3.60
2019-03-05T08:43:32.532Z,3.83
2019-03-05T08:46:03.033Z,3.73
2019-03-05T08:48:33.485Z,4.10
2019-03-05T08:51:04.076Z,3.60
2019-03-05T08:53:34.751Z,4.00
2019-03-05T08:56:06.410Z,3.23
2019-03-05T08:58:36.991Z,3.00
2019-03-05T09:01:08.387Z,3.70
2019-03-05T09:03:39.056Z,3.30
2019-03-05T09:06:09.903Z,3.07
2019-03-05T09:08:40.374Z,3.03
2019-03-05T09:11:11.002Z,3.40
2019-03-05T09:13:41.715Z,4.17
2019-03-05T09:16:12.340Z,3.40
2019-03-05T09:18:43.275Z,3.40
2019-03-05T09:21:14.020Z,3.30
2019-03-05T09:23:45.727Z,3.20
2019-03-05T09:26:16.316Z,3.50
2019-03-05T09:28:46.919Z,3.13
2019-03-05T09:31:17.541Z,2.73
2019-03-05T09:33:48.148Z,3.07
2019-03-05T09:36:18.725Z,2.80
2019-03-05T09:38:49.299Z,3.50
2019-03-05T09:41:19.808Z,2.70
2019-03-05T09:43:50.376Z,3.30
2019-03-05T09:46:21.141Z,3.00
2019-03-05T09:48:51.781Z,3.43
2019-03-05T09:51:22.406Z,3.10
2019-03-05T09:53:53.595Z,3.17
2019-03-05T09:56:24.179Z,2.80
2019-03-05T09:58:54.627Z,2.60
2019-03-05T10:01:25.267Z,2.73
2019-03-05T10:03:55.816Z,2.87
2019-03-05T10:06:26.413Z,2.87
2019-03-05T10:08:57.006Z,2.33
2019-03-05T10:11:27.651Z,3.07
2019-03-05T10:13:58.264Z,3.07
2019-03-05T10:16:28.991Z,2.93
2019-03-05T10:18:59.766Z,2.17
2019-03-05T10:21:30.303Z,2.60
2019-03-05T10:24:09.957Z,2.83
2019-03-05T10:26:33.288Z,3.10
2019-03-05T10:29:04.760Z,3.07
2019-03-05T10:31:35.522Z,3.13
2019-03-05T10:34:06.193Z,2.87
2019-03-05T10:36:36.819Z,2.87
2019-03-05T10:39:29.845Z,2.27
2019-03-05T10:41:53.722Z,2.63
2019-03-05T10:44:24.379Z,2.17
2019-03-05T10:46:56.128Z,2.47
2019-03-05T10:49:26.943Z,2.13
2019-03-05T10:51:58.888Z,2.43
2019-03-05T10:54:29.652Z,2.63
2019-03-05T10:57:01.379Z,3.20
2019-03-05T10:59:32.051Z,2.83
2019-03-05T11:02:02.565Z,2.37
2019-03-05T11:04:33.496Z,2.37
2019-03-05T11:07:04.041Z,2.50
2019-03-05T11:09:34.562Z,2.40
2019-03-05T11:12:05.974Z,2.70
2019-03-05T11:14:37.580Z,2.90
2019-03-05T11:17:08.228Z,3.10
2019-03-05T11:19:38.839Z,2.70
2019-03-05T11:22:09.365Z,2.87
2019-03-05T11:24:39.943Z,2.53
2019-03-05T11:27:10.585Z,2.90
2019-03-05T11:29:41.178Z,3.00
2019-03-05T11:32:11.697Z,2.93
2019-03-05T11:34:42.329Z,3.00
2019-03-05T11:37:12.963Z,3.00
2019-03-05T11:39:43.605Z,2.63
2019-03-05T11:42:15.091Z,2.80
2019-03-05T11:44:58.882Z,2.63
2019-03-05T11:47:17.683Z,2.77
2019-03-05T11:49:49.231Z,2.50
2019-03-05T11:52:19.773Z,3.40
2019-03-05T11:54:50.275Z,3.30
2019-03-05T11:57:20.961Z,3.20
2019-03-05T11:59:51.718Z,2.53
2019-03-05T12:02:22.228Z,2.00
2019-03-05T12:04:52.761Z,2.23
2019-03-05T12:07:23.404Z,3.20
2019-03-05T12:09:54.027Z,2.83
2019-03-05T12:12:24.552Z,2.70
2019-03-05T12:14:56.071Z,3.03
2019-03-05T12:17:26.554Z,2.63
2019-03-05T12:19:57.125Z,2.27
2019-03-05T12:22:28.000Z,1.50
2019-03-05T12:25:01.710Z,2.57
2019-03-05T12:27:30.865Z,1.80
2019-03-05T12:30:01.420Z,1.63
2019-03-05T12:32:32.283Z,1.50
2019-03-05T12:35:02.783Z,1.80
2019-03-05T12:37:33.312Z,1.93
2019-03-05T12:40:03.739Z,1.60
2019-03-05T12:42:34.333Z,2.17
2019-03-05T12:45:05.567Z,2.70
2019-03-05T12:47:36.429Z,2.03
2019-03-05T12:50:08.895Z,2.00
2019-03-05T12:52:39.519Z,2.17
2019-03-05T12:55:10.901Z,2.20
2019-03-05T12:57:41.599Z,2.30
2019-03-05T13:00:17.603Z,2.63
2019-03-05T13:02:48.435Z,2.80
2019-03-05T13:05:19.248Z,2.60
2019-03-05T13:07:52.498Z,2.60
2019-03-05T13:10:22.675Z,3.03
2019-03-05T13:12:53.165Z,2.93
2019-03-05T13:15:27.247Z,3.13
2019-03-05T13:17:57.858Z,3.13
2019-03-05T13:20:28.479Z,4.30
2019-03-05T13:22:59.272Z,3.20
2019-03-05T13:25:30.039Z,3.17
2019-03-05T13:28:01.969Z,3.03
2019-03-05T13:30:33.023Z,3.40
2019-03-05T13:33:03.617Z,3.30
2019-03-05T13:35:34.228Z,3.30
2019-03-05T13:38:07.392Z,3.53
2019-03-05T13:40:38.754Z,3.60
2019-03-05T13:43:09.973Z,3.40
2019-03-05T13:45:43.767Z,4.07
2019-03-05T13:48:23.357Z,3.93
2019-03-05T13:51:56.084Z,3.97
2019-03-05T13:54:49.753Z,2.40
2019-03-05T13:57:43.460Z,2.60
2019-03-05T14:00:13.670Z,3.57
2019-03-05T14:03:03.319Z,3.50
2019-03-05T14:06:12.559Z,4.87
2019-03-05T14:09:22.379Z,8.43
2019-03-05T14:11:53.685Z,7.23
2019-03-05T14:14:31.142Z,4.90
2019-03-05T14:17:08.598Z,8.77
2019-03-05T14:19:39.133Z,5.17
2019-03-05T14:22:09.650Z,11.17
2019-03-05T14:24:40.218Z,6.47
2019-03-05T14:27:10.703Z,4.30
2019-03-05T14:29:41.205Z,4.20
2019-03-05T14:32:11.907Z,4.33
2019-03-05T14:34:43.559Z,3.50
2019-03-05T14:37:14.055Z,3.60
2019-03-05T14:39:45.276Z,3.80
2019-03-05T14:42:15.858Z,2.83
2019-03-05T14:44:47.210Z,3.80
2019-03-05T14:47:17.702Z,3.10
2019-03-05T14:49:48.160Z,3.00
2019-03-05T14:52:18.721Z,3.50
2019-03-05T14:54:49.328Z,4.20
2019-03-05T14:57:20.067Z,3.97
2019-03-05T14:59:50.643Z,4.10
2019-03-05T15:02:21.226Z,3.57
2019-03-05T15:04:51.722Z,4.20
2019-03-05T15:07:22.323Z,5.30
2019-03-05T15:09:52.946Z,5.00
2019-03-05T15:12:23.522Z,5.73
2019-03-05T15:14:55.161Z,5.53
2019-03-05T15:17:25.887Z,5.87
2019-03-05T15:19:56.506Z,4.83
2019-03-05T15:22:27.136Z,4.97
2019-03-05T15:24:57.793Z,4.13
2019-03-05T15:27:29.405Z,3.67
2019-03-05T15:29:59.937Z,3.97
2019-03-05T15:32:30.568Z,3.43
2019-03-05T15:35:01.365Z,3.27
2019-03-05T15:37:32.960Z,3.23
2019-03-05T15:40:03.570Z,3.13
2019-03-05T15:42:34.141Z,3.33
2019-03-05T15:45:05.281Z,4.10
2019-03-05T15:47:35.965Z,4.43
2019-03-05T15:50:06.934Z,4.27
2019-03-05T15:52:37.685Z,3.87
2019-03-05T15:55:09.078Z,4.23
2019-03-05T15:57:39.629Z,3.80
2019-03-05T16:00:18.588Z,3.87
2019-03-05T16:02:53.202Z,3.53
2019-03-05T16:05:23.934Z,4.43
2019-03-05T16:07:54.454Z,4.73
2019-03-05T16:10:25.017Z,5.47
2019-03-05T16:12:55.816Z,4.33
2019-03-05T16:15:26.477Z,5.60
2019-03-05T16:17:57.109Z,4.33
2019-03-05T16:20:29.608Z,5.43
2019-03-05T16:22:59.864Z,5.10
2019-03-05T16:25:30.582Z,4.60
2019-03-05T16:28:06.225Z,4.10
2019-03-05T16:31:11.293Z,4.33
2019-03-05T16:34:13.196Z,4.50
2019-03-05T16:36:57.959Z,4.47
2019-03-05T16:39:59.768Z,3.80
2019-03-05T16:42:58.203Z,6.10
2019-03-05T16:45:40.719Z,4.73
2019-03-05T16:48:18.170Z,5.10
2019-03-05T16:51:06.431Z,5.83
2019-03-05T16:53:58.945Z,5.73
2019-03-05T16:56:40.317Z,5.97
2019-03-05T16:59:36.038Z,6.73
2019-03-05T17:02:26.530Z,6.63
2019-03-05T17:05:17.076Z,8.40
2019-03-05T17:08:06.826Z,7.60
2019-03-05T17:10:49.202Z,8.40
2019-03-05T17:13:19.883Z,9.00
2019-03-05T17:15:52.926Z,8.07
2019-03-05T17:18:24.835Z,10.53
2019-03-05T17:20:55.869Z,15.37
2019-03-05T17:23:26.473Z,22.07
2019-03-05T17:25:57.169Z,14.07
2019-03-05T17:28:27.698Z,28.40
2019-03-05T17:30:58.373Z,36.73
2019-03-05T17:33:30.340Z,18.40
2019-03-05T17:36:02.732Z,32.00
2019-03-05T17:38:33.960Z,17.37
2019-03-05T17:41:07.230Z,11.77
2019-03-05T17:43:37.900Z,33.07
2019-03-05T17:46:08.733Z,28.33
2019-03-05T17:48:39.345Z,16.63
2019-03-05T17:51:09.917Z,9.53
2019-03-05T17:53:40.732Z,8.73
2019-03-05T17:56:11.968Z,7.93
2019-03-05T17:58:42.853Z,7.13
2019-03-05T18:01:13.636Z,7.10
2019-03-05T18:03:44.420Z,7.47
2019-03-05T18:06:14.956Z,7.60
2019-03-05T18:08:45.886Z,7.20
2019-03-05T18:11:16.614Z,12.37
2019-03-05T18:13:49.195Z,11.17
2019-03-05T18:16:20.127Z,10.90
2019-03-05T18:18:50.802Z,11.00
2019-03-05T18:21:21.475Z,13.17
2019-03-05T18:23:53.260Z,12.23
2019-03-05T18:26:23.876Z,13.90
2019-03-05T18:28:54.500Z,17.07
2019-03-05T18:31:25.052Z,19.40
2019-03-05T18:33:55.686Z,21.27
2019-03-05T18:36:26.214Z,24.77
2019-03-05T18:38:56.746Z,23.77
2019-03-05T18:41:28.885Z,21.17
2019-03-05T18:43:59.582Z,17.47
2019-03-05T18:46:30.474Z,19.17
2019-03-05T18:49:01.190Z,18.77
2019-03-05T18:51:31.843Z,14.83
2019-03-05T18:54:02.446Z,15.50
2019-03-05T18:56:33.046Z,15.67
2019-03-05T18:59:03.624Z,18.00
2019-03-05T19:01:34.318Z,18.33
2019-03-05T19:04:04.966Z,20.03
2019-03-05T19:06:36.683Z,20.47
2019-03-05T19:09:08.118Z,20.97
2019-03-05T19:11:40.282Z,23.83
2019-03-05T19:14:10.910Z,31.40
2019-03-05T19:16:41.481Z,28.80
2019-03-05T19:19:12.072Z,34.03
2019-03-05T19:21:43.780Z,37.07
2019-03-05T19:24:18.163Z,40.10
2019-03-05T19:26:50.003Z,35.43
2019-03-05T19:29:21.387Z,32.43
2019-03-05T19:31:52.085Z,25.57
2019-03-05T19:34:22.585Z,21.20
2019-03-05T19:36:53.093Z,23.10
2019-03-05T19:39:23.689Z,22.43
2019-03-05T19:41:56.310Z,22.93
2019-03-05T19:44:28.967Z,23.73
2019-03-05T19:46:59.664Z,23.20
2019-03-05T19:49:30.317Z,22.27
2019-03-05T19:52:02.202Z,20.50
2019-03-05T19:54:32.805Z,20.80
2019-03-05T19:57:03.360Z,23.57
2019-03-05T19:59:33.975Z,23.83
2019-03-05T20:02:04.893Z,23.30
2019-03-05T20:04:35.585Z,23.60
2019-03-05T20:07:06.131Z,23.77
2019-03-05T20:09:36.707Z,24.73
2019-03-05T20:12:07.744Z,24.63
2019-03-05T20:14:38.260Z,22.67
2019-03-05T20:17:08.840Z,24.80
2019-03-05T20:19:41.729Z,22.53
2019-03-05T20:22:13.876Z,21.53
2019-03-05T20:24:44.495Z,23.17
2019-03-05T20:27:16.341Z,21.90
2019-03-05T20:29:49.350Z,20.77
2019-03-05T20:32:27.532Z,19.57
2019-03-05T20:34:58.354Z,19.13
2019-03-05T20:37:29.117Z,19.50
2019-03-05T20:40:05.154Z,18.93
2019-03-05T20:42:41.146Z,18.53
2019-03-05T20:45:22.095Z,17.17
2019-03-05T20:47:53.780Z,16.40
2019-03-05T20:50:24.419Z,16.53
2019-03-05T20:52:55.166Z,14.83
2019-03-05T20:55:25.720Z,13.17
2019-03-05T20:57:56.420Z,14.93
2019-03-05T21:00:29.418Z,13.40
2019-03-05T21:03:02.055Z,14.07
2019-03-05T21:05:37.696Z,13.23
2019-03-05T21:08:09.548Z,11.90
2019-03-05T21:10:40.221Z,13.17
2019-03-05T21:13:12.916Z,12.00
2019-03-05T21:15:43.461Z,11.83
2019-03-05T21:18:14.201Z,11.90
2019-03-05T21:20:44.931Z,11.77
2019-03-05T21:23:16.521Z,11.63
2019-03-05T21:25:47.192Z,10.90
2019-03-05T21:28:17.842Z,12.73
2019-03-05T21:30:48.399Z,11.40
2019-03-05T21:33:19.021Z,12.07
2019-03-05T21:35:49.719Z,12.27
2019-03-05T21:38:20.325Z,12.67
2019-03-05T21:40:51.004Z,12.33
2019-03-05T21:43:21.571Z,12.83
2019-03-05T21:45:52.787Z,11.97
2019-03-05T21:48:23.513Z,11.53
2019-03-05T21:50:54.121Z,12.40
2019-03-05T21:53:24.826Z,12.43
2019-03-05T21:55:55.648Z,11.90
2019-03-05T21:58:26.324Z,12.57
2019-03-05T22:00:56.911Z,12.93
2019-03-05T22:03:27.475Z,12.60
2019-03-05T22:05:58.086Z,13.50
2019-03-05T22:08:28.688Z,14.27
2019-03-05T22:10:59.491Z,12.80
2019-03-05T22:13:30.021Z,13.00
2019-03-05T22:16:01.625Z,12.37
2019-03-05T22:18:32.379Z,12.73
2019-03-05T22:21:02.879Z,11.50
2019-03-05T22:23:33.601Z,10.23
2019-03-05T22:26:06.348Z,11.10
2019-03-05T22:28:37.661Z,11.40
2019-03-05T22:31:08.488Z,11.27
2019-03-05T22:33:39.158Z,10.70
2019-03-05T22:36:09.782Z,9.93
2019-03-05T22:38:40.259Z,10.67
2019-03-05T22:41:10.794Z,11.20
2019-03-05T22:43:41.364Z,10.30
2019-03-05T22:46:11.926Z,10.50
2019-03-05T22:48:43.525Z,11.10
2019-03-05T22:51:14.457Z,10.03
2019-03-05T22:53:45.148Z,10.47
2019-03-05T22:56:15.811Z,10.10
2019-03-05T22:58:46.356Z,11.43
2019-03-05T23:01:38.960Z,10.37
2019-03-05T23:04:11.678Z,10.77
2019-03-05T23:06:43.215Z,11.67
2019-03-05T23:09:21.103Z,11.17
2019-03-05T23:11:52.024Z,10.40
2019-03-05T23:14:23.151Z,11.23
2019-03-05T23:16:55.680Z,10.40
2019-03-05T23:19:27.608Z,12.80
2019-03-05T23:21:58.328Z,13.63
2019-03-05T23:24:29.124Z,16.40
2019-03-05T23:26:59.699Z,18.60
2019-03-05T23:29:49.182Z,31.53
2019-03-05T23:32:19.943Z,20.57
2019-03-05T23:34:50.722Z,16.23
2019-03-05T23:37:21.288Z,12.87
2019-03-05T23:39:51.819Z,12.37
2019-03-05T23:42:23.109Z,11.70
2019-03-05T23:44:53.703Z,12.67
2019-03-05T23:47:30.489Z,11.97
2019-03-05T23:50:01.068Z,12.03
2019-03-05T23:52:31.582Z,11.57
2019-03-05T23:55:02.529Z,10.63
2019-03-05T23:57:33.101Z,11.43
